createdAt,value
2023-03-05T00:00:10.423Z,4.63
2023-03-05T00:01:12.883Z,4.87
2023-03-05T00:02:15.443Z,5.40
2023-03-05T00:03:18.042Z,5.05
2023-03-05T00:04:20.552Z,5.49
2023-03-05T00:05:22.801Z,5.57
2023-03-05T00:06:25.617Z,5.10
2023-03-05T00:07:28.040Z,6.58
2023-03-05T00:08:30.595Z,6.20
2023-03-05T00:09:34.915Z,6.53
2023-03-05T00:10:36.807Z,4.16
2023-03-05T00:11:39.312Z,5.28
2023-03-05T00:12:41.726Z,4.58
2023-03-05T00:13:44.213Z,5.42
2023-03-05T00:14:46.414Z,6.40
2023-03-05T00:15:48.653Z,5.27
2023-03-05T00:16:50.916Z,5.44
2023-03-05T00:17:53.080Z,4.51
2023-03-05T00:18:55.306Z,5.12
2023-03-05T00:19:57.769Z,4.95
2023-03-05T00:21:00.238Z,4.80
2023-03-05T00:22:02.638Z,4.23
2023-03-05T00:23:05.080Z,4.58
2023-03-05T00:24:07.541Z,6.08
2023-03-05T00:25:09.977Z,4.00
2023-03-05T00:26:13.040Z,5.36
2023-03-05T00:27:15.458Z,7.16
2023-03-05T00:28:17.893Z,6.48
2023-03-05T00:29:20.342Z,4.49
2023-03-05T00:30:22.860Z,4.18
2023-03-05T00:31:25.475Z,7.24
2023-03-05T00:32:28.049Z,8.88
2023-03-05T00:33:30.408Z,7.88
2023-03-05T00:34:32.915Z,7.60
2023-03-05T00:35:36.124Z,7.15
2023-03-05T00:36:38.842Z,7.66
2023-03-05T00:37:41.324Z,9.45
2023-03-05T00:38:43.795Z,7.63
2023-03-05T00:39:46.286Z,8.09
2023-03-05T00:40:48.677Z,9.02
2023-03-05T00:41:51.376Z,7.80
2023-03-05T00:42:53.920Z,8.32
2023-03-05T00:43:56.324Z,9.38
2023-03-05T00:44:58.770Z,6.71
2023-03-05T00:46:01.192Z,5.60
2023-03-05T00:47:03.933Z,9.13
2023-03-05T00:48:06.154Z,10.02
2023-03-05T00:49:08.388Z,10.02
2023-03-05T00:50:10.576Z,8.32
2023-03-05T00:51:12.794Z,7.37
2023-03-05T00:52:15.074Z,9.68
2023-03-05T00:53:17.350Z,9.26
2023-03-05T00:54:19.579Z,6.64
2023-03-05T00:55:22.070Z,8.31
2023-03-05T00:56:24.480Z,10.16
2023-03-05T00:57:27.172Z,8.21
2023-03-05T00:58:29.667Z,9.08
2023-03-05T00:59:32.091Z,8.14
2023-03-05T01:00:34.505Z,7.40
2023-03-05T01:01:37.169Z,7.15
2023-03-05T01:02:39.797Z,9.46
2023-03-05T01:03:42.264Z,8.77
2023-03-05T01:04:44.722Z,6.90
2023-03-05T01:05:47.140Z,7.09
2023-03-05T01:06:49.708Z,6.19
2023-03-05T01:07:52.419Z,8.73
2023-03-05T01:08:54.917Z,8.47
2023-03-05T01:09:57.409Z,9.21
2023-03-05T01:10:59.935Z,8.93
2023-03-05T01:12:02.484Z,10.89
2023-03-05T01:13:05.022Z,8.84
2023-03-05T01:14:07.519Z,10.28
2023-03-05T01:15:09.972Z,9.30
2023-03-05T01:16:12.450Z,11.52
2023-03-05T01:17:14.930Z,10.42
2023-03-05T01:18:17.380Z,9.73
2023-03-05T01:19:19.896Z,8.53
2023-03-05T01:20:22.344Z,10.05
2023-03-05T01:21:24.848Z,10.78
2023-03-05T01:22:27.102Z,10.32
2023-03-05T01:23:29.692Z,10.76
2023-03-05T01:24:31.898Z,7.24
2023-03-05T01:25:34.129Z,10.19
2023-03-05T01:26:36.262Z,10.05
2023-03-05T01:27:38.464Z,8.38
2023-03-05T01:28:40.910Z,6.74
2023-03-05T01:29:43.078Z,10.83
2023-03-05T01:30:45.299Z,8.52
2023-03-05T01:31:47.624Z,9.79
2023-03-05T01:32:49.882Z,11.45
2023-03-05T01:33:52.253Z,12.62
2023-03-05T01:34:54.518Z,8.77
2023-03-05T01:35:56.697Z,9.09
2023-03-05T01:36:59.254Z,10.33
2023-03-05T01:38:02.073Z,10.08
2023-03-05T01:39:05.068Z,10.17
2023-03-05T01:40:07.576Z,10.98
2023-03-05T01:41:10.004Z,9.89
2023-03-05T01:42:12.530Z,11.38
2023-03-05T01:43:14.958Z,11.82
2023-03-05T01:44:17.858Z,8.85
2023-03-05T01:45:20.246Z,9.21
2023-03-05T01:46:22.756Z,9.88
2023-03-05T01:47:25.170Z,11.97
2023-03-05T01:48:27.342Z,9.68
2023-03-05T01:49:29.913Z,10.21
2023-03-05T01:50:33.112Z,11.45
2023-03-05T01:51:35.529Z,7.82
2023-03-05T01:52:37.995Z,6.68
2023-03-05T01:53:40.444Z,11.52
2023-03-05T01:54:43.372Z,8.84
2023-03-05T01:55:45.606Z,9.00
2023-03-05T01:56:47.901Z,11.24
2023-03-05T01:57:50.159Z,10.71
2023-03-05T01:58:52.509Z,8.97
2023-03-05T01:59:54.954Z,9.93
2023-03-05T02:00:57.163Z,8.97
2023-03-05T02:01:59.596Z,11.91
2023-03-05T02:03:02.052Z,8.38
2023-03-05T02:04:04.484Z,7.63
2023-03-05T02:05:07.372Z,13.08
2023-03-05T02:06:09.831Z,9.64
2023-03-05T02:07:12.278Z,9.08
2023-03-05T02:08:14.843Z,9.48
2023-03-05T02:09:17.106Z,11.32
2023-03-05T02:10:19.642Z,10.76
2023-03-05T02:11:22.133Z,9.48
2023-03-05T02:12:24.758Z,12.53
2023-03-05T02:13:27.211Z,8.92
2023-03-05T02:14:29.754Z,10.21
2023-03-05T02:15:32.680Z,10.21
2023-03-05T02:16:35.296Z,8.47
2023-03-05T02:17:37.728Z,11.07
2023-03-05T02:18:40.189Z,7.78
2023-03-05T02:19:42.605Z,7.46
2023-03-05T02:20:45.253Z,8.57
2023-03-05T02:21:47.739Z,10.92
2023-03-05T02:22:50.428Z,8.75
2023-03-05T02:23:52.842Z,12.02
2023-03-05T02:24:55.261Z,8.57
2023-03-05T02:25:57.916Z,10.93
2023-03-05T02:27:00.511Z,6.60
2023-03-05T02:28:02.729Z,10.46
2023-03-05T02:29:05.190Z,8.08
2023-03-05T02:30:07.573Z,10.51
2023-03-05T02:31:09.792Z,7.89
2023-03-05T02:32:12.187Z,8.30
2023-03-05T02:33:14.491Z,9.08
2023-03-05T02:34:16.790Z,6.81
2023-03-05T02:35:19.086Z,8.58
2023-03-05T02:36:21.470Z,7.14
2023-03-05T02:37:23.686Z,8.35
2023-03-05T02:38:25.866Z,8.12
2023-03-05T02:39:28.054Z,9.07
2023-03-05T02:40:30.261Z,8.19
2023-03-05T02:41:32.594Z,8.30
2023-03-05T02:42:34.886Z,7.83
2023-03-05T02:43:37.211Z,8.38
2023-03-05T02:44:39.495Z,7.52
2023-03-05T02:45:41.821Z,8.09
2023-03-05T02:46:44.673Z,10.23
2023-03-05T02:47:46.946Z,8.98
2023-03-05T02:48:49.184Z,8.43
2023-03-05T02:49:51.426Z,7.58
2023-03-05T02:50:53.732Z,8.48
2023-03-05T02:51:55.997Z,8.36
2023-03-05T02:52:58.269Z,8.93
2023-03-05T02:54:00.485Z,8.19
2023-03-05T02:55:02.732Z,9.33
2023-03-05T02:56:05.008Z,7.78
2023-03-05T02:57:07.238Z,10.21
2023-03-05T02:58:09.437Z,7.94
2023-03-05T02:59:11.583Z,9.97
2023-03-05T03:00:13.785Z,7.24
2023-03-05T03:01:16.365Z,13.62
2023-03-05T03:02:18.937Z,7.38
2023-03-05T03:03:21.836Z,6.07
2023-03-05T03:04:24.415Z,8.11
2023-03-05T03:05:26.841Z,7.80
2023-03-05T03:06:29.487Z,6.97
2023-03-05T03:07:32.084Z,6.31
2023-03-05T03:08:34.518Z,7.99
2023-03-05T03:09:36.762Z,7.07
2023-03-05T03:10:39.213Z,7.40
2023-03-05T03:11:41.642Z,9.54
2023-03-05T03:12:44.156Z,7.55
2023-03-05T03:13:46.612Z,8.16
2023-03-05T03:14:49.069Z,7.83
2023-03-05T03:15:51.487Z,10.67
2023-03-05T03:16:53.993Z,8.28
2023-03-05T03:17:57.048Z,7.87
2023-03-05T03:18:59.490Z,9.43
2023-03-05T03:20:02.007Z,7.98
2023-03-05T03:21:04.466Z,9.17
2023-03-05T03:22:07.051Z,5.79
2023-03-05T03:23:09.671Z,10.43
2023-03-05T03:24:11.899Z,6.89
2023-03-05T03:25:14.210Z,8.01
2023-03-05T03:26:16.422Z,6.47
2023-03-05T03:27:18.667Z,7.45
2023-03-05T03:28:21.027Z,6.36
2023-03-05T03:29:23.242Z,9.23
2023-03-05T03:30:25.417Z,7.28
2023-03-05T03:31:27.686Z,8.72
2023-03-05T03:32:29.965Z,9.88
2023-03-05T03:33:32.591Z,8.92
2023-03-05T03:34:35.172Z,9.43
2023-03-05T03:35:37.641Z,9.23
2023-03-05T03:36:40.060Z,6.86
2023-03-05T03:37:42.444Z,8.77
2023-03-05T03:38:45.112Z,9.23
2023-03-05T03:39:47.622Z,6.73
2023-03-05T03:40:50.068Z,6.95
2023-03-05T03:41:52.522Z,8.72
2023-03-05T03:42:55.057Z,10.97
2023-03-05T03:43:57.523Z,8.00
2023-03-05T03:44:59.968Z,7.79
2023-03-05T03:46:02.439Z,8.90
2023-03-05T03:47:04.894Z,6.76
2023-03-05T03:48:07.502Z,8.07
2023-03-05T03:49:10.009Z,9.21
2023-03-05T03:50:12.492Z,8.07
2023-03-05T03:51:14.957Z,8.18
2023-03-05T03:52:17.471Z,11.76
2023-03-05T03:53:20.031Z,9.79
2023-03-05T03:54:22.952Z,8.41
2023-03-05T03:55:25.787Z,9.45
2023-03-05T03:56:28.233Z,8.23
2023-03-05T03:57:30.795Z,10.08
2023-03-05T03:58:33.266Z,13.20
2023-03-05T03:59:35.730Z,8.53
2023-03-05T04:00:38.214Z,9.64
2023-03-05T04:01:40.624Z,8.75
2023-03-05T04:02:43.102Z,6.30
2023-03-05T04:03:45.586Z,9.76
2023-03-05T04:04:48.154Z,8.48
2023-03-05T04:05:50.607Z,10.83
2023-03-05T04:06:53.050Z,9.80
2023-03-05T04:07:57.125Z,8.67
2023-03-05T04:08:59.466Z,7.71
2023-03-05T04:10:01.916Z,8.64
2023-03-05T04:11:04.324Z,7.60
2023-03-05T04:12:06.547Z,7.25
2023-03-05T04:13:08.758Z,6.28
2023-03-05T04:14:11.077Z,8.83
2023-03-05T04:15:13.486Z,12.04
2023-03-05T04:16:15.873Z,9.05
2023-03-05T04:17:18.163Z,6.56
2023-03-05T04:18:20.575Z,7.32
2023-03-05T04:19:23.054Z,6.83
2023-03-05T04:20:25.656Z,8.37
2023-03-05T04:21:28.152Z,8.83
2023-03-05T04:22:30.976Z,8.45
2023-03-05T04:23:33.503Z,8.52
2023-03-05T04:24:35.953Z,10.20
2023-03-05T04:25:38.580Z,8.54
2023-03-05T04:26:41.111Z,9.04
2023-03-05T04:27:43.590Z,9.60
2023-03-05T04:28:46.042Z,9.42
2023-03-05T04:29:48.554Z,9.58
2023-03-05T04:30:51.262Z,9.65
2023-03-05T04:31:53.820Z,9.11
2023-03-05T04:32:56.271Z,10.36
2023-03-05T04:33:58.823Z,8.97
2023-03-05T04:35:01.333Z,8.42
2023-03-05T04:36:04.059Z,7.78
2023-03-05T04:37:06.465Z,7.77
2023-03-05T04:38:08.769Z,8.99
2023-03-05T04:39:11.250Z,12.20
2023-03-05T04:40:13.739Z,8.83
2023-03-05T04:41:16.403Z,9.39
2023-03-05T04:42:18.924Z,7.71
2023-03-05T04:43:21.331Z,9.38
2023-03-05T04:44:23.833Z,8.44
2023-03-05T04:45:26.250Z,9.26
2023-03-05T04:46:28.810Z,10.08
2023-03-05T04:47:31.342Z,10.05
2023-03-05T04:48:34.136Z,7.85
2023-03-05T04:49:36.604Z,7.38
2023-03-05T04:50:39.033Z,10.28
2023-03-05T04:51:41.361Z,6.35
2023-03-05T04:52:43.754Z,10.10
2023-03-05T04:53:46.324Z,12.38
2023-03-05T04:54:48.994Z,10.16
2023-03-05T04:55:51.488Z,11.77
2023-03-05T04:56:54.540Z,11.76
2023-03-05T04:57:57.011Z,9.25
2023-03-05T04:58:59.238Z,8.80
2023-03-05T05:00:01.704Z,9.20
2023-03-05T05:01:04.183Z,8.61
2023-03-05T05:02:06.826Z,10.37
2023-03-05T05:03:09.439Z,7.62
2023-03-05T05:04:11.931Z,10.11
2023-03-05T05:05:15.805Z,9.81
2023-03-05T05:06:18.308Z,9.82
2023-03-05T05:07:20.791Z,11.23
2023-03-05T05:08:23.057Z,11.60
2023-03-05T05:09:25.292Z,8.22
2023-03-05T05:10:27.494Z,7.97
2023-03-05T05:11:29.731Z,10.53
2023-03-05T05:12:32.233Z,9.75
2023-03-05T05:13:34.499Z,8.47
2023-03-05T05:14:36.743Z,10.26
2023-03-05T05:15:38.937Z,10.28
2023-03-05T05:16:41.484Z,12.07
2023-03-05T05:17:44.031Z,10.18
2023-03-05T05:18:46.481Z,9.17
2023-03-05T05:19:49.078Z,11.75
2023-03-05T05:20:51.647Z,10.49
2023-03-05T05:21:54.103Z,7.91
2023-03-05T05:22:56.788Z,8.96
2023-03-05T05:23:59.104Z,9.73
2023-03-05T05:25:01.582Z,8.18
2023-03-05T05:26:04.067Z,10.36
2023-03-05T05:27:06.568Z,9.89
2023-03-05T05:28:10.765Z,11.62
2023-03-05T05:29:13.157Z,12.46
2023-03-05T05:30:15.654Z,9.76
2023-03-05T05:31:18.273Z,11.87
2023-03-05T05:32:20.834Z,9.31
2023-03-05T05:33:23.148Z,11.90
2023-03-05T05:34:25.619Z,15.97
2023-03-05T05:35:28.185Z,11.03
2023-03-05T05:36:30.753Z,11.10
2023-03-05T05:37:33.207Z,12.75
2023-03-05T05:38:36.218Z,10.32
2023-03-05T05:39:38.683Z,10.37
2023-03-05T05:40:41.102Z,10.42
2023-03-05T05:41:43.540Z,8.20
2023-03-05T05:42:45.981Z,11.24
2023-03-05T05:43:48.490Z,12.18
2023-03-05T05:44:50.937Z,13.25
2023-03-05T05:45:53.457Z,11.93
2023-03-05T05:46:55.976Z,11.15
2023-03-05T05:47:58.606Z,14.06
2023-03-05T05:49:01.378Z,13.93
2023-03-05T05:50:03.810Z,10.11
2023-03-05T05:51:06.253Z,9.17
2023-03-05T05:52:12.162Z,11.47
2023-03-05T05:53:14.633Z,12.76
2023-03-05T05:54:17.138Z,14.26
2023-03-05T05:55:19.566Z,10.95
2023-03-05T05:56:21.980Z,10.59
2023-03-05T05:57:24.374Z,12.80
2023-03-05T05:58:26.855Z,13.45
2023-03-05T06:00:37.545Z,14.61
2023-03-05T06:01:40.129Z,14.61
2023-03-05T06:02:42.651Z,13.92
2023-03-05T06:03:45.211Z,12.04
2023-03-05T06:04:47.704Z,10.45
2023-03-05T06:07:06.104Z,12.79
2023-03-05T06:08:08.513Z,13.07
2023-03-05T06:09:10.967Z,11.23
2023-03-05T06:10:13.464Z,9.29
2023-03-05T06:11:18.233Z,9.46
2023-03-05T06:12:20.098Z,11.54
2023-03-05T06:14:38.567Z,10.16
2023-03-05T06:15:41.225Z,11.65
2023-03-05T06:16:43.782Z,11.06
2023-03-05T06:17:46.306Z,11.96
2023-03-05T06:18:48.755Z,9.53
2023-03-05T06:19:51.264Z,12.58
2023-03-05T06:20:53.845Z,13.78
2023-03-05T06:21:56.280Z,12.82
2023-03-05T06:22:58.861Z,11.29
2023-03-05T06:24:01.377Z,11.98
2023-03-05T06:26:20.211Z,13.80
2023-03-05T06:27:22.967Z,15.68
2023-03-05T06:28:25.354Z,10.80
2023-03-05T06:29:27.792Z,10.82
2023-03-05T06:30:30.313Z,11.83
2023-03-05T06:31:58.984Z,10.42
2023-03-05T06:33:01.789Z,9.01
2023-03-05T06:34:04.658Z,13.14
2023-03-05T06:35:07.439Z,13.68
2023-03-05T06:36:10.514Z,14.72
2023-03-05T06:37:13.696Z,19.76
2023-03-05T06:38:16.781Z,13.31
2023-03-05T06:39:19.640Z,12.14
2023-03-05T06:40:22.840Z,11.38
2023-03-05T06:41:25.701Z,14.46
2023-03-05T06:42:28.807Z,12.79
2023-03-05T06:43:31.513Z,12.68
2023-03-05T06:44:34.274Z,13.88
2023-03-05T06:45:37.410Z,13.59
2023-03-05T06:46:40.516Z,10.71
2023-03-05T06:47:43.458Z,10.46
2023-03-05T06:48:46.334Z,16.16
2023-03-05T06:49:48.918Z,15.88
2023-03-05T06:50:52.086Z,10.48
2023-03-05T06:51:54.958Z,12.47
2023-03-05T06:52:58.139Z,11.75
2023-03-05T06:54:00.923Z,9.77
2023-03-05T06:55:04.206Z,11.55
2023-03-05T06:56:07.401Z,11.19
2023-03-05T06:57:10.152Z,13.00
2023-03-05T06:58:13.235Z,10.65
2023-03-05T06:59:16.138Z,13.02
2023-03-05T07:00:18.884Z,13.31
2023-03-05T07:01:21.728Z,13.32
2023-03-05T07:02:24.906Z,17.35
2023-03-05T07:03:27.556Z,11.65
2023-03-05T07:04:30.774Z,13.44
2023-03-05T07:05:34.581Z,13.34
2023-03-05T07:06:37.983Z,11.57
2023-03-05T07:07:41.457Z,13.12
2023-03-05T07:08:44.980Z,13.05
2023-03-05T07:09:48.423Z,12.74
2023-03-05T07:10:52.128Z,11.02
2023-03-05T07:11:55.617Z,13.13
2023-03-05T07:12:59.417Z,14.23
2023-03-05T07:14:02.989Z,15.51
2023-03-05T07:15:06.070Z,15.53
2023-03-05T07:16:08.961Z,11.93
2023-03-05T07:17:11.531Z,11.55
2023-03-05T07:18:14.508Z,13.72
2023-03-05T07:19:17.582Z,16.96
2023-03-05T07:20:20.570Z,14.32
2023-03-05T07:21:23.429Z,16.83
2023-03-05T07:22:26.408Z,15.85
2023-03-05T07:23:29.500Z,16.96
2023-03-05T07:24:32.777Z,14.19
2023-03-05T07:25:35.576Z,12.65
2023-03-05T07:26:38.462Z,15.47
2023-03-05T07:27:41.546Z,14.97
2023-03-05T07:28:44.292Z,18.50
2023-03-05T07:29:47.489Z,15.22
2023-03-05T07:30:50.452Z,16.10
2023-03-05T07:31:53.200Z,16.38
2023-03-05T07:32:56.075Z,14.83
2023-03-05T07:33:59.351Z,14.88
2023-03-05T07:35:02.738Z,15.06
2023-03-05T07:36:06.040Z,14.32
2023-03-05T07:37:09.945Z,17.12
2023-03-05T07:38:13.413Z,14.98
2023-03-05T07:39:16.414Z,15.25
2023-03-05T07:40:19.823Z,15.65
2023-03-05T07:41:23.074Z,16.98
2023-03-05T07:42:25.986Z,17.39
2023-03-05T07:43:28.907Z,15.92
2023-03-05T07:44:32.122Z,16.36
2023-03-05T07:45:35.272Z,19.28
2023-03-05T07:46:38.522Z,19.12
2023-03-05T07:47:41.282Z,16.35
2023-03-05T07:48:43.928Z,15.55
2023-03-05T07:49:46.596Z,15.82
2023-03-05T07:50:49.762Z,14.93
2023-03-05T07:51:52.653Z,18.58
2023-03-05T07:52:56.007Z,19.16
2023-03-05T07:53:58.666Z,20.31
2023-03-05T07:55:01.190Z,19.99
2023-03-05T07:56:04.490Z,16.67
2023-03-05T07:57:07.562Z,16.98
2023-03-05T07:58:10.619Z,19.01
2023-03-05T07:59:13.782Z,16.31
2023-03-05T08:00:17.279Z,14.05
2023-03-05T08:01:20.755Z,17.70
2023-03-05T08:02:23.737Z,16.69
2023-03-05T08:03:27.233Z,16.25
2023-03-05T08:04:31.207Z,17.46
2023-03-05T08:05:34.325Z,19.02
2023-03-05T08:06:37.806Z,18.90
2023-03-05T08:07:40.984Z,18.95
2023-03-05T08:08:44.093Z,19.86
2023-03-05T08:09:46.998Z,19.90
2023-03-05T08:10:49.813Z,21.04
2023-03-05T08:11:53.096Z,21.07
2023-03-05T08:12:56.064Z,18.44
2023-03-05T08:13:59.072Z,15.35
2023-03-05T08:15:01.721Z,14.88
2023-03-05T08:16:04.772Z,16.08
2023-03-05T08:17:07.881Z,18.45
2023-03-05T08:18:10.657Z,16.87
2023-03-05T08:19:13.819Z,18.65
2023-03-05T08:20:17.127Z,21.05
2023-03-05T08:21:20.324Z,18.70
2023-03-05T08:22:23.779Z,18.94
2023-03-05T08:23:27.260Z,19.65
2023-03-05T08:24:30.873Z,19.68
2023-03-05T08:25:34.033Z,18.21
2023-03-05T08:26:37.422Z,20.39
2023-03-05T08:27:40.718Z,20.78
2023-03-05T08:28:43.600Z,20.82
2023-03-05T08:29:46.377Z,22.31
2023-03-05T08:30:49.245Z,18.57
2023-03-05T08:31:51.938Z,20.08
2023-03-05T08:32:55.501Z,19.81
2023-03-05T08:33:58.775Z,22.72
2023-03-05T08:35:02.263Z,20.28
2023-03-05T08:36:05.338Z,18.38
2023-03-05T08:37:08.141Z,18.24
2023-03-05T08:38:11.096Z,22.65
2023-03-05T08:39:14.080Z,21.17
2023-03-05T08:40:17.250Z,20.94
2023-03-05T08:41:20.691Z,19.36
2023-03-05T08:42:24.031Z,18.27
2023-03-05T08:43:27.921Z,19.48
2023-03-05T08:44:31.413Z,22.79
2023-03-05T08:45:34.891Z,19.99
2023-03-05T08:46:38.070Z,17.80
2023-03-05T08:47:40.978Z,18.35
2023-03-05T08:48:44.576Z,18.69
2023-03-05T08:49:47.739Z,22.97
2023-03-05T08:50:51.116Z,21.70
2023-03-05T08:51:54.129Z,26.51
2023-03-05T08:52:57.087Z,22.76
2023-03-05T08:53:59.737Z,21.04
2023-03-05T08:55:02.552Z,23.55
2023-03-05T08:56:05.692Z,19.89
2023-03-05T08:57:08.779Z,21.50
2023-03-05T08:58:12.000Z,22.41
2023-03-05T08:59:15.655Z,22.22
2023-03-05T09:00:18.559Z,18.52
2023-03-05T09:01:21.616Z,22.60
2023-03-05T09:02:24.691Z,18.18
2023-03-05T09:03:27.889Z,23.22
2023-03-05T09:04:31.463Z,19.68
2023-03-05T09:05:34.248Z,21.52
2023-03-05T09:06:37.717Z,20.32
2023-03-05T09:07:40.897Z,20.98
2023-03-05T09:08:44.301Z,19.34
2023-03-05T09:09:47.309Z,21.28
2023-03-05T09:10:50.529Z,21.78
2023-03-05T09:11:53.555Z,23.66
2023-03-05T09:12:57.380Z,21.67
2023-03-05T09:14:00.405Z,20.50
2023-03-05T09:15:03.577Z,24.22
2023-03-05T09:16:07.260Z,22.00
2023-03-05T09:17:10.356Z,19.41
2023-03-05T09:18:13.638Z,19.50
2023-03-05T09:19:16.816Z,21.64
2023-03-05T09:20:20.335Z,20.68
2023-03-05T09:21:23.395Z,22.95
2023-03-05T09:22:26.180Z,19.41
2023-03-05T09:23:29.359Z,23.27
2023-03-05T09:24:32.244Z,25.69
2023-03-05T09:25:35.724Z,23.58
2023-03-05T09:26:38.517Z,24.50
2023-03-05T09:27:41.503Z,21.12
2023-03-05T09:28:44.445Z,20.84
2023-03-05T09:29:47.339Z,19.50
2023-03-05T09:30:50.796Z,20.25
2023-03-05T09:31:54.101Z,23.00
2023-03-05T09:32:57.163Z,19.89
2023-03-05T09:34:00.358Z,20.61
2023-03-05T09:35:03.824Z,18.51
2023-03-05T09:36:07.251Z,22.56
2023-03-05T09:37:10.524Z,21.59
2023-03-05T09:38:13.690Z,21.63
2023-03-05T09:39:16.686Z,22.77
2023-03-05T09:40:21.391Z,25.14
2023-03-05T09:41:24.964Z,23.85
2023-03-05T09:42:28.351Z,24.26
2023-03-05T09:43:31.575Z,23.53
2023-03-05T09:44:34.612Z,21.70
2023-03-05T09:45:37.730Z,23.42
2023-03-05T09:46:41.450Z,22.12
2023-03-05T09:47:44.505Z,18.74
2023-03-05T09:48:47.188Z,24.61
2023-03-05T09:49:50.360Z,22.61
2023-03-05T09:50:53.402Z,23.28
2023-03-05T09:51:57.335Z,21.51
2023-03-05T09:53:00.107Z,16.39
2023-03-05T09:54:03.318Z,19.89
2023-03-05T09:55:06.137Z,22.05
2023-03-05T09:56:08.916Z,20.96
2023-03-05T09:57:12.200Z,21.74
2023-03-05T09:58:15.591Z,24.36
2023-03-05T09:59:18.460Z,26.81
2023-03-05T10:00:21.566Z,22.09
2023-03-05T10:01:24.932Z,21.43
2023-03-05T10:02:28.117Z,24.54
2023-03-05T10:03:31.465Z,23.17
2023-03-05T10:04:34.356Z,21.68
2023-03-05T10:05:37.850Z,18.99
2023-03-05T10:06:41.041Z,19.35
2023-03-05T10:07:44.016Z,17.19
2023-03-05T10:08:47.408Z,19.72
2023-03-05T10:09:50.328Z,22.53
2023-03-05T10:10:53.067Z,18.84
2023-03-05T10:11:56.040Z,22.83
2023-03-05T10:12:59.114Z,22.45
2023-03-05T10:14:02.380Z,21.40
2023-03-05T10:15:05.260Z,19.29
2023-03-05T10:16:08.388Z,20.67
2023-03-05T10:17:11.333Z,20.41
2023-03-05T10:18:14.280Z,20.48
2023-03-05T10:19:17.377Z,21.42
2023-03-05T10:20:20.418Z,21.79
2023-03-05T10:21:23.621Z,21.36
2023-03-05T10:22:26.505Z,21.56
2023-03-05T10:23:29.507Z,23.25
2023-03-05T10:24:32.559Z,17.72
2023-03-05T10:25:35.439Z,23.38
2023-03-05T10:26:38.412Z,24.02
2023-03-05T10:27:41.599Z,20.90
2023-03-05T10:28:44.580Z,21.17
2023-03-05T10:29:47.657Z,21.15
2023-03-05T10:30:50.535Z,22.74
2023-03-05T10:31:54.015Z,24.36
2023-03-05T10:32:56.780Z,25.72
2023-03-05T10:33:59.757Z,23.65
2023-03-05T10:35:02.542Z,23.47
2023-03-05T10:36:05.715Z,22.86
2023-03-05T10:37:08.600Z,19.42
2023-03-05T10:38:12.002Z,20.09
2023-03-05T10:39:14.964Z,23.75
2023-03-05T10:40:17.778Z,20.48
2023-03-05T10:41:20.684Z,21.41
2023-03-05T10:42:23.779Z,19.67
2023-03-05T10:43:26.565Z,24.33
2023-03-05T10:44:29.541Z,24.36
2023-03-05T10:45:32.655Z,21.65
2023-03-05T10:46:35.494Z,24.54
2023-03-05T10:47:38.456Z,27.02
2023-03-05T10:48:41.531Z,24.79
2023-03-05T10:49:44.740Z,24.77
2023-03-05T10:50:47.801Z,20.35
2023-03-05T10:51:50.981Z,23.20
2023-03-05T10:52:53.956Z,23.48
2023-03-05T10:53:57.139Z,22.72
2023-03-05T10:55:00.846Z,25.38
2023-03-05T10:56:03.926Z,25.31
2023-03-05T10:57:07.094Z,23.42
2023-03-05T10:58:10.182Z,26.70
2023-03-05T10:59:13.673Z,24.57
2023-03-05T11:00:17.462Z,23.74
2023-03-05T11:01:20.635Z,25.08
2023-03-05T11:02:24.024Z,23.17
2023-03-05T11:03:27.211Z,21.23
2023-03-05T11:04:30.411Z,23.99
2023-03-05T11:05:33.775Z,26.40
2023-03-05T11:06:36.970Z,25.59
2023-03-05T11:07:40.073Z,23.64
2023-03-05T11:08:43.553Z,24.90
2023-03-05T11:09:46.820Z,20.50
2023-03-05T11:10:50.110Z,25.45
2023-03-05T11:11:53.271Z,24.41
2023-03-05T11:12:56.351Z,26.63
2023-03-05T11:13:59.503Z,23.89
2023-03-05T11:15:02.404Z,25.64
2023-03-05T11:16:06.000Z,24.86
2023-03-05T11:17:08.985Z,24.65
2023-03-05T11:24:33.097Z,30.88
2023-03-05T11:25:36.372Z,25.72
2023-03-05T11:26:39.363Z,24.60
2023-03-05T11:27:42.295Z,29.94
2023-03-05T11:28:45.742Z,27.78
2023-03-05T11:29:49.268Z,26.56
2023-03-05T11:30:52.504Z,32.13
2023-03-05T11:31:55.682Z,29.47
2023-03-05T11:32:58.664Z,23.83
2023-03-05T11:34:01.829Z,22.26
2023-03-05T11:35:04.920Z,23.88
2023-03-05T11:36:08.105Z,30.78
2023-03-05T11:37:11.273Z,26.15
2023-03-05T11:38:14.475Z,24.55
2023-03-05T11:39:17.696Z,22.62
2023-03-05T11:40:21.016Z,27.07
2023-03-05T11:41:24.145Z,33.27
2023-03-05T11:42:27.566Z,27.78
2023-03-05T11:43:31.178Z,32.10
2023-03-05T11:44:34.344Z,27.49
2023-03-05T11:45:37.367Z,26.43
2023-03-05T11:46:40.747Z,24.85
2023-03-05T11:47:44.031Z,23.88
2023-03-05T11:48:47.651Z,28.91
2023-03-05T11:49:51.080Z,30.42
2023-03-05T11:50:54.502Z,29.58
2023-03-05T11:51:57.797Z,28.38
2023-03-05T11:53:01.158Z,25.28
2023-03-05T11:54:04.451Z,25.16
2023-03-05T11:55:07.657Z,22.60
2023-03-05T11:56:10.917Z,25.88
2023-03-05T11:57:14.224Z,27.76
2023-03-05T11:58:17.589Z,33.20
2023-03-05T11:59:20.875Z,26.71
2023-03-05T12:00:24.460Z,22.71
2023-03-05T12:01:27.675Z,25.28
2023-03-05T12:02:30.865Z,23.83
2023-03-05T12:03:34.114Z,22.02
2023-03-05T12:04:37.507Z,25.91
2023-03-05T12:05:40.537Z,24.79
2023-03-05T12:06:43.698Z,29.81
2023-03-05T12:07:46.942Z,29.38
2023-03-05T12:08:50.242Z,29.92
2023-03-05T12:09:53.384Z,27.21
2023-03-05T12:10:56.488Z,22.75
2023-03-05T12:11:59.380Z,22.18
2023-03-05T12:13:02.230Z,25.18
2023-03-05T12:14:05.229Z,24.52
2023-03-05T12:15:08.230Z,25.94
2023-03-05T12:16:11.333Z,27.53
2023-03-05T12:17:14.389Z,25.20
2023-03-05T12:18:17.420Z,22.75
2023-03-05T12:19:20.253Z,22.46
2023-03-05T12:20:23.103Z,26.34
2023-03-05T12:21:26.194Z,26.15
2023-03-05T12:22:29.022Z,19.70
2023-03-05T12:23:31.814Z,20.37
2023-03-05T12:24:34.878Z,26.36
2023-03-05T12:25:37.999Z,26.64
2023-03-05T12:26:40.937Z,25.48
2023-03-05T12:27:43.916Z,27.22
2023-03-05T12:28:46.796Z,26.18
2023-03-05T12:29:50.066Z,24.25
2023-03-05T12:30:53.055Z,23.42
2023-03-05T12:31:56.348Z,21.93
2023-03-05T12:32:59.627Z,21.53
2023-03-05T12:34:02.502Z,21.45
2023-03-05T12:35:05.591Z,18.95
2023-03-05T12:36:08.789Z,17.15
2023-03-05T12:37:11.942Z,19.09
2023-03-05T12:38:26.399Z,19.86
2023-03-05T12:39:19.629Z,19.92
2023-03-05T12:40:22.607Z,20.57
2023-03-05T12:41:27.953Z,19.85
2023-03-05T12:42:30.052Z,22.88
2023-03-05T12:43:33.710Z,21.61
2023-03-05T12:44:36.665Z,22.54
2023-03-05T12:45:39.970Z,24.54
2023-03-05T12:46:43.006Z,19.25
2023-03-05T12:47:46.011Z,21.10
2023-03-05T12:48:49.266Z,19.22
2023-03-05T12:49:52.480Z,22.06
2023-03-05T12:50:55.607Z,23.17
2023-03-05T12:51:58.527Z,21.68
2023-03-05T12:53:01.824Z,17.69
2023-03-05T12:54:04.886Z,21.05
2023-03-05T12:55:07.680Z,17.18
2023-03-05T12:56:12.363Z,17.59
2023-03-05T12:57:14.161Z,20.57
2023-03-05T12:58:16.394Z,21.93
2023-03-05T12:59:18.605Z,16.74
2023-03-05T13:00:21.141Z,18.67
2023-03-05T13:01:23.602Z,18.79
2023-03-05T13:02:26.052Z,20.72
2023-03-05T13:03:28.524Z,19.43
2023-03-05T13:04:30.755Z,17.45
2023-03-05T13:05:32.976Z,20.68
2023-03-05T13:06:35.164Z,18.58
2023-03-05T13:07:37.412Z,15.59
2023-03-05T13:08:39.631Z,21.56
2023-03-05T13:09:42.042Z,21.11
2023-03-05T13:10:44.493Z,17.52
2023-03-05T13:11:47.011Z,16.86
2023-03-05T13:12:49.514Z,16.39
2023-03-05T13:13:52.256Z,17.93
2023-03-05T13:14:54.645Z,20.99
2023-03-05T13:15:57.208Z,14.32
2023-03-05T13:16:59.838Z,17.49
2023-03-05T13:18:02.230Z,16.38
2023-03-05T13:19:04.748Z,21.26
2023-03-05T13:20:07.190Z,18.75
2023-03-05T13:21:09.620Z,15.70
2023-03-05T13:22:12.116Z,15.48
2023-03-05T13:23:14.396Z,17.77
2023-03-05T13:24:16.897Z,16.17
2023-03-05T13:25:19.106Z,14.59
2023-03-05T13:26:21.332Z,15.70
2023-03-05T13:27:23.608Z,11.36
2023-03-05T13:28:25.797Z,16.43
2023-03-05T13:29:28.171Z,13.13
2023-03-05T13:30:30.440Z,15.86
2023-03-05T13:31:32.743Z,14.92
2023-03-05T13:32:35.074Z,13.93
2023-03-05T13:33:37.481Z,13.01
2023-03-05T13:34:47.622Z,12.79
2023-03-05T13:35:44.075Z,12.57
2023-03-05T13:36:46.650Z,15.86
2023-03-05T13:37:49.176Z,13.04
2023-03-05T13:38:51.638Z,13.56
2023-03-05T13:39:54.058Z,13.64
2023-03-05T13:40:58.659Z,11.19
2023-03-05T13:42:00.560Z,13.27
2023-03-05T13:43:03.019Z,14.13
2023-03-05T13:44:05.388Z,17.38
2023-03-05T13:45:07.828Z,10.89
2023-03-05T13:46:10.343Z,11.55
2023-03-05T13:47:12.869Z,17.71
2023-03-05T13:48:15.717Z,10.62